Portada
METAR-TAF:

METAR-TAF

Aeroports :

Batam, Indonèsia

latitud: 01-07-15N, longitud: 104-07-07E, altitud: 38 m

Observació

L'informe es va fer fa 41 minuts, a les 22:30 UTC
Vent 6 kt del Nord/Nord-Est
Temperatura 26°C
Humitat 84%
Pressió 1012 hPa
Visibilitat 10 km o més
Escasses núvols a una alçada de 1400 ft

METAR: WIDD 012230Z 02006KT 9999 FEW014 26/23 Q1012 NOSIG

Hora: 06:11 (23:11 UTC)

Pronòstic

L'informe es va fer fa 6 hores i 11 minuts, a les 17:00 UTC
Pronòstic vàlid del 01 a les 18 UTC al 02 a les 18 UTC
Vent 6 kt del Nord/Nord-Est
Visibilitat 10 km o més
Escasses núvols a una alçada de 1400 ft

TAF: WIDD 011700Z 0118/0218 03006KT 9999 FEW014

Observacions i pronòstics meteorològics de més de 4000 aeroports (METAR i TAF).

Les estacions disponibles són els punts grocs i vermells al mapa.

Posi el ratolí al punt desitjat per veure el nom de l'estació.

Feu clic per veure les observacions i els pronòstics meteorològics.

Per canviar el mapa: feu clic els botons verds amb una creu de color negre per apropar; al botó verd amb un guió per allunyar la imatge; o en les fletxes verdes per a mapes adjacents.


METAR-TAF: